Time;durP1;ratioP1;P1;durP2;ratioP2;P2;SDS_P1;SDS_P2;PMS_P1;PMS_P2;Temp;Humidity;BMP_temperature;BMP_pressure;BME280_temperature;BME280_humidity;BME280_pressure;Samples;Min_cycle;Max_cycle;Signal;HPM_P1;HPM_P2
2023/09/24 07:09:59;;;;;;;1.15;1.00;;;;;;;;;;5717061;22;20386;-82
2023/09/24 07:12:26;;;;;;;2.33;0.85;;;;;;;;;;5074718;28;20028;-82
2023/09/24 07:14:53;;;;;;;0.98;0.77;;;;;;;;;;5074662;28;20471;-81
2023/09/24 07:17:18;;;;;;;1.20;0.80;;;;;;;;;;5074384;28;20060;-80
2023/09/24 08:37:59;;;;;;;1.13;1.00;;;;;;;;;;4986747;28;20448;-81
2023/09/24 08:40:29;;;;;;;1.13;0.70;;;;;;;;;;4994009;28;20066;-80
2023/09/24 08:42:56;;;;;;;1.50;0.93;;;;;;;;;;4994202;28;20027;-81
2023/09/24 08:45:26;;;;;;;0.95;0.95;;;;;;;;;;5010803;28;20025;-82
2023/09/24 08:47:52;;;;;;;1.73;1.02;;;;;;;;;;5013444;28;20025;-81
2023/09/24 08:50:18;;;;;;;0.80;0.80;;;;;;;;;;5013836;28;20050;-82
2023/09/24 08:52:45;;;;;;;0.90;0.80;;;;;;;;;;5013645;28;20480;-83
2023/09/24 08:55:12;;;;;;;1.13;0.80;;;;;;;;;;5012150;28;20034;-83
2023/09/24 08:57:39;;;;;;;1.05;0.93;;;;;;;;;;5013646;28;20117;-82
2023/09/24 09:00:06;;;;;;;0.70;0.70;;;;;;;;;;5013512;28;20054;-82
2023/09/24 09:02:33;;;;;;;1.40;1.00;;;;;;;;;;5013897;28;20034;-82
2023/09/24 09:04:58;;;;;;;1.35;0.80;;;;;;;;;;5013289;28;20032;-82
2023/09/24 09:07:24;;;;;;;1.33;1.00;;;;;;;;;;5013367;28;20034;-82
2023/09/24 09:09:59;;;;;;;1.67;0.98;;;;;;;;;;5013672;28;20038;-83
2023/09/24 09:12:26;;;;;;;1.50;1.00;;;;;;;;;;5013144;28;20380;-84
2023/09/24 09:14:52;;;;;;;2.25;1.10;;;;;;;;;;5013244;28;20029;-88
2023/09/24 09:17:18;;;;;;;1.75;0.73;;;;;;;;;;5013424;28;20109;-86
2023/09/24 09:19:48;;;;;;;2.55;1.02;;;;;;;;;;5015922;28;20101;-86
2023/09/24 09:22:20;;;;;;;1.70;0.90;;;;;;;;;;5017129;28;20022;-87
2023/09/24 09:24:48;;;;;;;1.85;0.90;;;;;;;;;;5016982;28;20030;-85
2023/09/24 09:27:14;;;;;;;0.98;0.70;;;;;;;;;;5017223;28;20026;-86
2023/09/24 09:29:39;;;;;;;1.88;0.50;;;;;;;;;;5017502;28;21196;-82
2023/09/24 09:32:05;;;;;;;0.70;0.70;;;;;;;;;;5015320;28;20025;-83
2023/09/24 09:34:30;;;;;;;1.00;0.70;;;;;;;;;;5008060;28;20065;-82
2023/09/24 09:37:22;;;;;;;1.15;0.90;;;;;;;;;;5014003;28;20038;-82
2023/09/24 09:39:48;;;;;;;2.65;0.90;;;;;;;;;;5012456;28;20057;-82
2023/09/24 09:42:20;;;;;;;1.30;0.80;;;;;;;;;;5013258;28;20021;-83
2023/09/24 09:44:49;;;;;;;1.50;0.90;;;;;;;;;;5016630;28;20053;-83
2023/09/24 09:47:18;;;;;;;1.27;0.77;;;;;;;;;;5016482;28;20380;-82
2023/09/24 09:49:51;;;;;;;1.13;0.65;;;;;;;;;;5016064;28;20072;-83
2023/09/24 09:52:20;;;;;;;2.45;1.17;;;;;;;;;;5016673;28;20025;-82
2023/09/24 09:54:50;;;;;;;1.60;1.00;;;;;;;;;;5016301;28;20022;-82
2023/09/24 09:57:16;;;;;;;1.42;1.10;;;;;;;;;;5016645;28;20029;-83
2023/09/24 09:59:43;;;;;;;1.13;0.85;;;;;;;;;;5016339;28;20033;-83
2023/09/24 10:02:10;;;;;;;2.35;1.30;;;;;;;;;;5016372;28;20045;-81
2023/09/24 10:04:37;;;;;;;3.05;2.00;;;;;;;;;;5016303;28;20380;-81
2023/09/24 10:07:03;;;;;;;1.38;0.90;;;;;;;;;;5016319;28;20022;-82
2023/09/24 10:09:29;;;;;;;2.78;1.23;;;;;;;;;;5016190;28;20547;-82
2023/09/24 10:11:56;;;;;;;3.10;1.48;;;;;;;;;;5016238;28;20030;-83
2023/09/24 10:14:38;;;;;;;1.17;0.93;;;;;;;;;;5016127;28;20022;-83
2023/09/24 10:17:16;;;;;;;1.95;1.10;;;;;;;;;;4998206;28;20030;-83
2023/09/24 10:19:53;;;;;;;2.08;1.00;;;;;;;;;;5015909;28;20022;-83
2023/09/24 10:22:33;;;;;;;3.13;1.10;;;;;;;;;;5016105;28;20372;-83
2023/09/24 10:25:00;;;;;;;2.92;1.38;;;;;;;;;;5015752;28;20072;-83
2023/09/24 10:27:31;;;;;;;1.50;0.88;;;;;;;;;;5016081;28;20040;-85
2023/09/24 10:29:56;;;;;;;1.65;0.93;;;;;;;;;;5015172;28;20465;-85
2023/09/24 10:32:23;;;;;;;2.45;1.00;;;;;;;;;;5015388;28;20050;-85
2023/09/24 10:37:34;;;;;;;1.83;0.90;;;;;;;;;;5015724;28;20034;-84
2023/09/24 10:39:59;;;;;;;1.85;0.80;;;;;;;;;;5015895;28;20029;-84
2023/09/24 10:42:26;;;;;;;1.10;0.95;;;;;;;;;;5015574;28;20021;-85
2023/09/24 10:45:07;;;;;;;1.98;1.02;;;;;;;;;;4997860;28;20377;-88
2023/09/24 10:47:40;;;;;;;2.67;1.02;;;;;;;;;;5015477;28;20080;-87
2023/09/24 10:50:18;;;;;;;1.55;1.10;;;;;;;;;;5015435;28;20114;-86
2023/09/24 10:53:01;;;;;;;1.00;0.80;;;;;;;;;;5015706;28;20028;-87
2023/09/24 10:55:27;;;;;;;0.70;0.70;;;;;;;;;;4997763;28;20026;-87
2023/09/24 10:57:53;;;;;;;2.45;1.23;;;;;;;;;;5015496;28;20479;-86
2023/09/24 11:00:20;;;;;;;1.27;1.00;;;;;;;;;;5015337;28;20022;-87
2023/09/24 11:02:57;;;;;;;1.95;0.88;;;;;;;;;;5015269;28;20052;-87
2023/09/24 11:05:23;;;;;;;1.15;0.80;;;;;;;;;;5015337;28;20025;-89
2023/09/24 11:07:48;;;;;;;1.88;0.80;;;;;;;;;;5015186;28;20029;-86
2023/09/24 11:10:18;;;;;;;0.85;0.80;;;;;;;;;;5015149;28;20026;-87
2023/09/24 11:12:53;;;;;;;4.38;1.33;;;;;;;;;;5015060;28;20071;-87
2023/09/24 11:15:19;;;;;;;0.75;0.73;;;;;;;;;;5014842;28;20061;-86
2023/09/24 11:17:46;;;;;;;1.17;0.95;;;;;;;;;;5014876;28;20018;-86
2023/09/24 11:20:12;;;;;;;1.92;0.93;;;;;;;;;;5014993;28;20054;-84
2023/09/24 11:22:38;;;;;;;1.15;0.90;;;;;;;;;;5014967;28;20099;-83
2023/09/24 11:25:04;;;;;;;1.38;0.82;;;;;;;;;;5015032;28;20512;-86
2023/09/24 11:27:31;;;;;;;1.15;1.05;;;;;;;;;;4996836;28;20384;-85
2023/09/24 11:30:00;;;;;;;1.27;1.00;;;;;;;;;;5014870;28;20375;-85
2023/09/24 11:32:27;;;;;;;0.80;0.80;;;;;;;;;;5014783;28;20030;-85
2023/09/24 11:35:08;;;;;;;2.00;1.00;;;;;;;;;;5015980;28;20030;-84
2023/09/24 11:37:48;;;;;;;1.00;0.90;;;;;;;;;;5014380;28;20109;-83
2023/09/24 11:40:24;;;;;;;2.80;0.80;;;;;;;;;;5014513;28;20065;-83
2023/09/24 11:42:57;;;;;;;0.80;0.70;;;;;;;;;;5014223;28;20464;-83
2023/09/24 11:45:48;;;;;;;0.80;0.80;;;;;;;;;;5014510;28;20018;-83
2023/09/24 11:48:21;;;;;;;3.17;0.70;;;;;;;;;;5014482;28;20032;-84
2023/09/24 11:50:57;;;;;;;0.80;0.80;;;;;;;;;;5014549;28;20062;-84
2023/09/24 11:53:28;;;;;;;5.50;1.02;;;;;;;;;;5014275;28;20091;-83
2023/09/24 11:55:58;;;;;;;1.40;0.90;;;;;;;;;;5014177;28;20029;-83
2023/09/24 11:58:28;;;;;;;1.10;1.00;;;;;;;;;;5014313;28;20036;-84
2023/09/24 12:00:57;;;;;;;3.13;0.95;;;;;;;;;;5014387;28;20480;-84
2023/09/24 12:03:24;;;;;;;1.23;0.90;;;;;;;;;;5014170;28;20049;-84
2023/09/24 12:05:50;;;;;;;1.50;0.70;;;;;;;;;;5014243;28;20022;-84
2023/09/24 12:08:16;;;;;;;0.60;0.60;;;;;;;;;;5014048;28;20025;-83
2023/09/24 12:10:46;;;;;;;2.00;1.00;;;;;;;;;;5014089;28;20034;-83
2023/09/24 12:13:13;;;;;;;1.33;1.05;;;;;;;;;;5013884;28;20040;-83
2023/09/24 12:15:39;;;;;;;1.63;1.00;;;;;;;;;;5013760;28;20053;-83
2023/09/24 12:18:06;;;;;;;1.00;0.70;;;;;;;;;;5014140;28;20026;-83
2023/09/24 12:20:36;;;;;;;1.23;0.77;;;;;;;;;;5013892;28;20026;-83
2023/09/24 12:23:04;;;;;;;1.02;0.90;;;;;;;;;;5016028;28;20029;-83
2023/09/24 12:25:30;;;;;;;1.20;1.10;;;;;;;;;;5014088;28;20026;-84
2023/09/24 12:27:56;;;;;;;0.73;0.73;;;;;;;;;;5013748;28;20042;-83
2023/09/24 12:30:23;;;;;;;1.83;0.85;;;;;;;;;;5013960;28;20133;-83
2023/09/24 12:32:48;;;;;;;1.05;0.95;;;;;;;;;;5014956;28;20036;-83
2023/09/24 12:35:14;;;;;;;1.02;0.93;;;;;;;;;;5016267;28;20030;-83
2023/09/24 12:37:41;;;;;;;1.20;0.80;;;;;;;;;;5013274;28;20523;-84
2023/09/24 12:40:08;;;;;;;0.80;0.80;;;;;;;;;;5013821;28;20026;-83
2023/09/24 12:42:35;;;;;;;0.93;0.63;;;;;;;;;;5013493;28;20054;-83
2023/09/24 12:45:01;;;;;;;1.15;0.80;;;;;;;;;;5013857;28;20129;-83
2023/09/24 12:47:32;;;;;;;1.00;0.73;;;;;;;;;;5013695;28;20377;-86
2023/09/24 12:49:59;;;;;;;3.08;0.88;;;;;;;;;;5013663;28;20105;-86
2023/09/24 12:52:25;;;;;;;1.23;0.90;;;;;;;;;;5013672;28;20024;-83
2023/09/24 12:54:51;;;;;;;1.13;0.90;;;;;;;;;;5016148;28;20069;-83
2023/09/24 12:57:16;;;;;;;1.70;0.70;;;;;;;;;;5017677;28;20022;-84
2023/09/24 12:59:41;;;;;;;0.82;0.80;;;;;;;;;;5017632;28;20361;-83
2023/09/24 13:02:07;;;;;;;0.80;0.77;;;;;;;;;;5017500;28;20097;-84
2023/09/24 13:04:34;;;;;;;1.38;0.70;;;;;;;;;;5017492;28;20018;-84
2023/09/24 13:07:00;;;;;;;0.65;0.60;;;;;;;;;;5017264;28;20022;-81
2023/09/24 13:09:26;;;;;;;1.52;0.70;;;;;;;;;;5017262;28;20029;-87
2023/09/24 13:11:51;;;;;;;1.50;0.80;;;;;;;;;;5017310;28;20105;-81
2023/09/24 13:14:17;;;;;;;0.57;0.57;;;;;;;;;;5017449;28;20104;-82
2023/09/24 13:16:43;;;;;;;1.13;0.73;;;;;;;;;;5017339;28;20076;-82
2023/09/24 13:19:13;;;;;;;0.88;0.47;;;;;;;;;;5017315;28;20388;-82
2023/09/24 13:21:40;;;;;;;0.98;0.68;;;;;;;;;;5017652;28;20069;-83
2023/09/24 13:24:07;;;;;;;2.03;0.73;;;;;;;;;;5017167;28;20017;-81
2023/09/24 13:26:33;;;;;;;0.80;0.80;;;;;;;;;;5016743;28;20033;-81
2023/09/24 13:28:58;;;;;;;1.40;0.77;;;;;;;;;;5017226;28;20100;-80
2023/09/24 13:31:24;;;;;;;0.70;0.70;;;;;;;;;;5016927;28;20391;-81
2023/09/24 13:33:49;;;;;;;1.15;0.70;;;;;;;;;;5016909;28;20026;-80
2023/09/24 13:36:15;;;;;;;1.75;1.25;;;;;;;;;;5016861;28;20315;-81
2023/09/24 13:38:41;;;;;;;3.38;2.17;;;;;;;;;;5016584;28;20385;-83
2023/09/24 13:41:11;;;;;;;2.00;1.80;;;;;;;;;;5016597;28;20076;-82
2023/09/24 13:43:36;;;;;;;0.60;0.60;;;;;;;;;;5016777;28;20026;-83
2023/09/24 13:46:02;;;;;;;0.90;0.73;;;;;;;;;;5016581;28;20036;-83
2023/09/24 13:48:27;;;;;;;0.80;0.70;;;;;;;;;;5016667;28;20084;-82
2023/09/24 13:50:53;;;;;;;0.60;0.52;;;;;;;;;;5016640;28;20026;-82
2023/09/24 13:53:21;;;;;;;1.30;0.70;;;;;;;;;;5016402;28;20018;-81
2023/09/24 13:55:47;;;;;;;1.25;0.70;;;;;;;;;;5016367;28;20025;-84
2023/09/24 13:58:13;;;;;;;1.42;0.80;;;;;;;;;;5016708;28;20022;-81
2023/09/24 14:00:38;;;;;;;1.15;0.65;;;;;;;;;;5016474;28;20031;-82
2023/09/24 14:03:04;;;;;;;0.60;0.60;;;;;;;;;;5016247;28;20030;-82
2023/09/24 14:05:33;;;;;;;0.98;0.75;;;;;;;;;;5016499;28;20022;-81
2023/09/24 14:13:26;;;;;;;4.60;0.98;;;;;;;;;;5016631;28;20076;-81
2023/09/24 14:15:51;;;;;;;0.73;0.63;;;;;;;;;;5016159;28;20046;-80
2023/09/24 14:18:17;;;;;;;1.98;0.85;;;;;;;;;;5016114;28;20519;-82
2023/09/24 14:20:42;;;;;;;2.08;0.93;;;;;;;;;;5016050;28;20030;-80
2023/09/24 14:23:08;;;;;;;1.25;0.88;;;;;;;;;;5016213;28;20029;-80
2023/09/24 14:25:41;;;;;;;0.93;0.80;;;;;;;;;;5016045;28;20030;-81
2023/09/24 14:28:07;;;;;;;1.13;0.70;;;;;;;;;;5015862;28;20026;-80
2023/09/24 14:30:37;;;;;;;0.65;0.63;;;;;;;;;;5015772;28;20392;-81
2023/09/24 14:33:04;;;;;;;1.05;0.90;;;;;;;;;;5015720;28;20029;-83
2023/09/24 14:35:29;;;;;;;0.90;0.80;;;;;;;;;;5016049;28;20048;-85
2023/09/24 14:37:55;;;;;;;0.90;0.60;;;;;;;;;;5015494;28;20050;-81
2023/09/24 14:40:20;;;;;;;0.77;0.70;;;;;;;;;;5015668;28;20029;-81
2023/09/24 14:42:47;;;;;;;1.00;0.80;;;;;;;;;;5015802;28;20037;-85
2023/09/24 14:45:13;;;;;;;0.95;0.80;;;;;;;;;;5015492;28;20030;-83
2023/09/24 14:47:41;;;;;;;1.05;1.00;;;;;;;;;;5015398;28;20113;-80
2023/09/24 14:50:06;;;;;;;0.95;0.80;;;;;;;;;;5015612;28;20461;-79
2023/09/24 14:52:32;;;;;;;1.00;0.75;;;;;;;;;;5015299;28;20048;-80
2023/09/24 14:54:57;;;;;;;1.15;0.80;;;;;;;;;;5015196;28;20033;-80
2023/09/24 14:57:23;;;;;;;2.38;1.02;;;;;;;;;;5015151;28;20022;-82
2023/09/24 14:59:49;;;;;;;2.45;0.90;;;;;;;;;;4997362;28;20472;-82
2023/09/24 15:02:14;;;;;;;1.90;1.00;;;;;;;;;;4997405;28;20037;-81
2023/09/24 15:04:40;;;;;;;1.17;0.95;;;;;;;;;;5015074;28;20022;-81
2023/09/24 15:07:05;;;;;;;0.90;0.90;;;;;;;;;;5015011;28;20026;-81
2023/09/24 15:09:31;;;;;;;1.35;1.00;;;;;;;;;;5014927;28;20022;-81
2023/09/24 15:11:56;;;;;;;1.95;1.85;;;;;;;;;;5015243;28;20095;-82
2023/09/24 15:14:23;;;;;;;2.28;1.88;;;;;;;;;;5014749;28;20022;-82
2023/09/24 15:16:53;;;;;;;1.90;1.50;;;;;;;;;;5014758;28;20026;-82
2023/09/24 15:19:19;;;;;;;7.22;6.47;;;;;;;;;;5015030;28;20040;-82
2023/09/24 15:21:45;;;;;;;3.17;2.67;;;;;;;;;;5014823;28;20365;-82
2023/09/24 15:24:12;;;;;;;3.05;2.70;;;;;;;;;;5014362;28;20045;-82
2023/09/24 15:26:38;;;;;;;1.55;1.15;;;;;;;;;;5014553;28;20026;-82
2023/09/24 15:29:04;;;;;;;0.80;0.80;;;;;;;;;;5014805;28;20036;-82
2023/09/24 15:31:30;;;;;;;1.23;1.05;;;;;;;;;;5014727;28;20465;-81
2023/09/24 15:33:59;;;;;;;2.45;1.38;;;;;;;;;;5014167;28;20037;-82
2023/09/24 15:36:25;;;;;;;1.02;0.90;;;;;;;;;;5014584;28;20026;-79
2023/09/24 15:38:51;;;;;;;1.77;1.20;;;;;;;;;;5014280;28;20571;-81
2023/09/24 15:41:17;;;;;;;1.20;0.85;;;;;;;;;;5014496;28;20030;-81
2023/09/24 15:43:42;;;;;;;1.60;1.20;;;;;;;;;;5014318;28;20021;-82
2023/09/24 17:21:50;;;;;;;2.25;1.30;;;;;;;;;;5285035;22;20522;-83
2023/09/24 17:29:26;;;;;;;1.60;1.10;;;;;;;;;;5200651;22;20057;-87
2023/09/24 17:42:02;;;;;;;1.00;0.90;;;;;;;;;;5055205;28;20044;-86
2023/09/24 17:44:27;;;;;;;2.55;1.83;;;;;;;;;;5056604;28;20027;-85
2023/09/24 17:46:53;;;;;;;2.92;2.60;;;;;;;;;;5056756;28;20378;-82
2023/09/24 17:49:18;;;;;;;3.42;1.27;;;;;;;;;;5056024;28;20542;-82
2023/09/24 17:51:44;;;;;;;0.98;0.80;;;;;;;;;;5056427;28;20029;-83
2023/09/24 17:54:10;;;;;;;0.80;0.65;;;;;;;;;;5056227;28;20517;-81
2023/09/24 17:56:37;;;;;;;1.75;1.13;;;;;;;;;;5056173;28;20032;-88
2023/09/24 17:59:02;;;;;;;2.10;0.88;;;;;;;;;;5055944;28;20025;-82
2023/09/24 18:01:28;;;;;;;1.60;1.10;;;;;;;;;;5055041;28;20025;-82
2023/09/24 18:03:53;;;;;;;1.33;0.88;;;;;;;;;;5056070;28;20024;-83
2023/09/24 18:06:19;;;;;;;1.10;0.90;;;;;;;;;;5056000;28;20502;-83
2023/09/24 18:08:45;;;;;;;1.20;1.10;;;;;;;;;;5055705;28;20033;-83
2023/09/24 18:11:11;;;;;;;1.45;0.93;;;;;;;;;;5054850;28;20115;-83
2023/09/24 18:13:40;;;;;;;2.95;1.30;;;;;;;;;;5056007;28;20533;-84
2023/09/24 18:16:06;;;;;;;3.37;1.20;;;;;;;;;;5056072;28;20029;-83
2023/09/24 18:18:34;;;;;;;1.92;1.10;;;;;;;;;;5055883;28;20537;-82
2023/09/24 18:21:01;;;;;;;1.90;0.90;;;;;;;;;;5055981;28;20039;-84
2023/09/24 18:23:28;;;;;;;1.38;0.80;;;;;;;;;;5055745;28;20029;-85
2023/09/24 18:25:54;;;;;;;1.58;0.90;;;;;;;;;;5055551;28;20025;-83
2023/09/24 18:28:20;;;;;;;1.75;1.02;;;;;;;;;;5055389;28;20032;-84
2023/09/24 18:30:46;;;;;;;1.30;0.77;;;;;;;;;;5055811;28;20045;-84
2023/09/24 18:33:15;;;;;;;2.20;0.80;;;;;;;;;;5055651;28;20025;-84
2023/09/24 18:35:41;;;;;;;2.33;1.20;;;;;;;;;;5055461;28;20033;-83
2023/09/24 18:38:07;;;;;;;2.25;1.05;;;;;;;;;;5055440;28;20025;-83
2023/09/24 18:40:40;;;;;;;1.63;0.80;;;;;;;;;;5054136;28;20494;-85
2023/09/24 18:43:06;;;;;;;1.85;1.30;;;;;;;;;;5055238;28;20383;-88
2023/09/24 18:45:33;;;;;;;2.78;2.10;;;;;;;;;;5055474;28;20025;-87
2023/09/24 18:47:59;;;;;;;3.38;2.13;;;;;;;;;;5055132;28;20029;-87
2023/09/24 18:50:25;;;;;;;1.17;0.93;;;;;;;;;;5054490;28;20052;-87
2023/09/24 18:52:51;;;;;;;2.35;1.00;;;;;;;;;;5052981;28;20029;-88
2023/09/24 18:55:16;;;;;;;2.30;1.02;;;;;;;;;;5055007;28;20106;-87
2023/09/24 18:57:42;;;;;;;0.98;0.88;;;;;;;;;;5055127;28;20537;-88
2023/09/24 19:00:11;;;;;;;1.52;1.00;;;;;;;;;;5055272;28;20529;-88
2023/09/24 19:02:39;;;;;;;2.47;1.35;;;;;;;;;;5054920;28;20053;-88
2023/09/24 19:05:07;;;;;;;1.37;1.10;;;;;;;;;;5055000;28;20029;-88
2023/09/24 19:07:32;;;;;;;1.17;1.05;;;;;;;;;;5054680;28;20104;-88
2023/09/24 19:09:58;;;;;;;1.55;1.05;;;;;;;;;;5054764;28;20547;-88
2023/09/24 19:12:23;;;;;;;1.98;1.35;;;;;;;;;;5055088;28;20387;-85
2023/09/24 19:14:49;;;;;;;2.15;1.70;;;;;;;;;;5055775;28;20029;-85
2023/09/24 19:17:15;;;;;;;4.00;2.08;;;;;;;;;;5055231;28;20430;-86
2023/09/24 19:19:41;;;;;;;1.67;1.05;;;;;;;;;;5055497;28;20035;-85
2023/09/24 19:22:07;;;;;;;1.10;1.00;;;;;;;;;;5041420;28;20025;-86
2023/09/24 19:24:32;;;;;;;1.30;1.02;;;;;;;;;;5034470;28;20109;-84
2023/09/24 19:27:02;;;;;;;1.20;1.00;;;;;;;;;;5034493;28;20026;-84
2023/09/24 19:29:28;;;;;;;2.58;1.13;;;;;;;;;;5036994;28;20021;-85
2023/09/24 19:31:54;;;;;;;1.00;0.88;;;;;;;;;;5054419;28;20532;-84
2023/09/24 19:34:19;;;;;;;1.20;1.10;;;;;;;;;;5054374;28;20462;-84
2023/09/24 19:36:45;;;;;;;1.13;1.02;;;;;;;;;;5054294;28;20035;-84
2023/09/24 19:39:10;;;;;;;1.30;1.10;;;;;;;;;;5041683;28;20376;-85
2023/09/24 19:41:36;;;;;;;1.45;1.10;;;;;;;;;;5034307;28;20050;-84
2023/09/24 19:44:05;;;;;;;1.02;0.98;;;;;;;;;;5034421;28;20364;-85
2023/09/24 19:46:31;;;;;;;3.38;1.15;;;;;;;;;;5034123;28;20053;-85
2023/09/24 19:48:56;;;;;;;1.13;1.00;;;;;;;;;;5032739;28;20458;-85
2023/09/24 19:51:22;;;;;;;1.20;0.98;;;;;;;;;;5032844;28;20112;-85
2023/09/24 19:53:47;;;;;;;2.92;0.98;;;;;;;;;;5033993;28;20042;-85
2023/09/24 19:56:14;;;;;;;1.17;1.08;;;;;;;;;;5045872;28;20032;-85
2023/09/24 19:58:40;;;;;;;1.33;1.10;;;;;;;;;;5049061;28;20051;-86
2023/09/24 20:01:05;;;;;;;1.30;1.20;;;;;;;;;;5034316;28;20512;-85
2023/09/24 20:03:31;;;;;;;0.90;0.90;;;;;;;;;;5034240;28;20109;-85
2023/09/24 20:05:57;;;;;;;2.45;0.85;;;;;;;;;;5034047;28;20083;-85
2023/09/24 20:08:32;;;;;;;1.35;0.98;;;;;;;;;;5033931;28;20496;-85
2023/09/24 20:10:58;;;;;;;1.20;1.10;;;;;;;;;;5034116;28;20025;-85
2023/09/24 20:13:23;;;;;;;1.25;0.95;;;;;;;;;;5038460;28;20025;-86
2023/09/24 20:15:49;;;;;;;2.20;1.10;;;;;;;;;;5053735;28;20033;-86
2023/09/24 20:18:15;;;;;;;2.00;1.30;;;;;;;;;;5052367;28;20028;-85
2023/09/24 20:20:40;;;;;;;1.83;1.33;;;;;;;;;;5052304;28;20399;-85
2023/09/24 20:23:06;;;;;;;1.50;1.15;;;;;;;;;;5053816;28;20025;-85
2023/09/24 20:25:40;;;;;;;1.77;1.15;;;;;;;;;;5053832;28;20092;-85
2023/09/24 20:28:05;;;;;;;4.78;1.15;;;;;;;;;;5053763;28;20422;-85
2023/09/24 20:30:31;;;;;;;4.28;1.30;;;;;;;;;;5053634;28;20032;-86
2023/09/24 20:32:56;;;;;;;2.67;1.67;;;;;;;;;;5053525;28;20047;-85
2023/09/24 20:35:21;;;;;;;1.20;1.10;;;;;;;;;;5053618;28;20033;-84
2023/09/24 20:37:47;;;;;;;1.60;1.00;;;;;;;;;;5053203;28;20036;-85
2023/09/24 20:40:15;;;;;;;3.03;1.38;;;;;;;;;;5053684;28;20116;-86
2023/09/24 20:42:40;;;;;;;1.20;1.10;;;;;;;;;;5053344;28;20518;-86
2023/09/24 20:45:07;;;;;;;1.20;1.10;;;;;;;;;;5053550;28;20025;-87
2023/09/24 20:47:33;;;;;;;2.10;1.27;;;;;;;;;;5053231;28;20029;-86
2023/09/24 20:49:58;;;;;;;2.53;1.20;;;;;;;;;;5053196;28;20029;-85
2023/09/24 20:52:24;;;;;;;1.20;1.10;;;;;;;;;;5053542;28;20036;-84
2023/09/24 20:54:50;;;;;;;2.70;1.30;;;;;;;;;;5053738;28;20025;-85
2023/09/24 20:57:15;;;;;;;2.05;1.23;;;;;;;;;;5053306;28;20029;-86
2023/09/24 20:59:51;;;;;;;1.40;1.15;;;;;;;;;;5053240;28;20028;-85
2023/09/24 21:02:17;;;;;;;1.30;1.05;;;;;;;;;;5053468;28;20029;-85
2023/09/24 21:04:42;;;;;;;2.67;1.50;;;;;;;;;;5053172;28;20025;-86
2023/09/24 21:07:08;;;;;;;4.55;1.83;;;;;;;;;;5053478;28;20025;-85
2023/09/24 21:09:33;;;;;;;1.52;1.40;;;;;;;;;;5053005;28;20107;-85
2023/09/24 21:11:59;;;;;;;3.75;1.50;;;;;;;;;;5053315;28;20360;-85
2023/09/24 21:14:24;;;;;;;1.58;1.10;;;;;;;;;;5053698;28;20067;-85
2023/09/24 21:16:50;;;;;;;2.40;1.20;;;;;;;;;;5057100;28;20467;-85
2023/09/24 21:19:15;;;;;;;1.35;1.00;;;;;;;;;;5056914;28;20049;-86
2023/09/24 21:21:41;;;;;;;1.10;1.00;;;;;;;;;;5057123;28;20066;-86
2023/09/24 21:24:08;;;;;;;1.23;1.10;;;;;;;;;;5057236;28;20029;-85
2023/09/24 21:26:34;;;;;;;2.03;1.33;;;;;;;;;;5057042;28;20029;-86
2023/09/24 21:28:59;;;;;;;2.53;1.23;;;;;;;;;;5052279;28;20391;-84
2023/09/24 21:31:25;;;;;;;2.13;1.17;;;;;;;;;;5036957;28;20025;-85
2023/09/24 21:33:50;;;;;;;4.18;1.30;;;;;;;;;;5037031;28;20037;-86
2023/09/24 21:36:16;;;;;;;1.80;1.10;;;;;;;;;;5036774;28;20057;-87
2023/09/24 21:38:42;;;;;;;2.33;1.38;;;;;;;;;;5036764;28;20456;-85
2023/09/24 21:41:07;;;;;;;6.25;1.73;;;;;;;;;;5036577;28;20404;-85
2023/09/24 21:43:33;;;;;;;1.52;1.40;;;;;;;;;;5036567;28;20025;-87
2023/09/24 21:46:00;;;;;;;1.80;1.30;;;;;;;;;;5036854;28;20115;-85
2023/09/24 21:48:26;;;;;;;1.95;1.35;;;;;;;;;;5036244;28;20543;-85
2023/09/24 21:50:52;;;;;;;2.75;1.60;;;;;;;;;;5035235;28;20154;-85
2023/09/24 21:53:18;;;;;;;2.38;1.73;;;;;;;;;;5036434;28;20472;-85
2023/09/24 21:55:46;;;;;;;2.35;1.35;;;;;;;;;;5036662;28;20033;-84
2023/09/24 21:58:11;;;;;;;1.10;1.10;;;;;;;;;;5036287;28;20075;-85
2023/09/24 22:00:37;;;;;;;1.00;0.90;;;;;;;;;;5035113;28;20025;-84
2023/09/24 22:03:03;;;;;;;2.13;1.40;;;;;;;;;;5036245;28;20025;-88
2023/09/24 22:05:29;;;;;;;1.30;1.10;;;;;;;;;;5036407;28;20480;-86
2023/09/24 22:07:55;;;;;;;1.08;0.93;;;;;;;;;;5036035;28;20103;-83
